createdAt,value
2022-09-25T00:01:02.225Z,2.00
2022-09-25T00:03:30.487Z,1.63
2022-09-25T00:06:05.132Z,2.00
2022-09-25T00:08:33.248Z,1.90
2022-09-25T00:11:06.719Z,1.90
2022-09-25T00:13:34.814Z,1.53
2022-09-25T00:16:03.260Z,1.50
2022-09-25T00:18:48.874Z,1.40
2022-09-25T00:21:17.202Z,2.23
2022-09-25T00:23:45.433Z,2.10
2022-09-25T00:26:15.276Z,1.50
2022-09-25T00:28:43.463Z,1.10
2022-09-25T00:31:11.513Z,1.30
2022-09-25T00:33:39.675Z,1.80
2022-09-25T00:36:08.955Z,1.43
2022-09-25T00:38:37.589Z,1.53
2022-09-25T00:41:06.169Z,1.77
2022-09-25T00:43:37.804Z,1.30
2022-09-25T00:46:08.910Z,1.63
2022-09-25T00:48:37.052Z,1.60
2022-09-25T00:51:05.126Z,1.30
2022-09-25T00:53:34.236Z,1.60
2022-09-25T00:56:02.595Z,1.67
2022-09-25T00:58:30.690Z,2.00
2022-09-25T01:01:00.132Z,1.50
2022-09-25T01:03:28.538Z,1.97
2022-09-25T01:05:57.836Z,1.40
2022-09-25T01:08:26.549Z,1.73
2022-09-25T01:10:54.489Z,1.33
2022-09-25T01:13:22.536Z,1.70
2022-09-25T01:15:52.710Z,1.73
2022-09-25T01:18:28.471Z,1.60
2022-09-25T01:21:14.558Z,1.73
2022-09-25T01:24:17.801Z,1.57
2022-09-25T01:27:07.542Z,1.30
2022-09-25T01:29:38.134Z,1.53
2022-09-25T01:32:08.181Z,1.20
2022-09-25T01:34:39.999Z,1.67
2022-09-25T01:37:12.147Z,1.60
2022-09-25T01:39:40.762Z,1.57
2022-09-25T01:42:11.962Z,1.47
2022-09-25T01:44:43.790Z,1.30
2022-09-25T01:47:13.445Z,1.87
2022-09-25T01:49:43.351Z,1.67
2022-09-25T01:52:15.062Z,1.50
2022-09-25T01:54:44.798Z,1.80
2022-09-25T01:57:14.971Z,2.07
2022-09-25T01:59:46.106Z,1.67
2022-09-25T02:02:15.706Z,2.13
2022-09-25T02:04:46.257Z,1.80
2022-09-25T02:07:16.598Z,1.40
2022-09-25T02:09:45.923Z,1.40
2022-09-25T02:12:15.725Z,1.83
2022-09-25T02:14:46.707Z,1.73
2022-09-25T02:17:35.395Z,1.83
2022-09-25T02:20:20.787Z,1.27
2022-09-25T02:22:48.729Z,1.20
2022-09-25T02:25:18.301Z,1.27
2022-09-25T02:27:46.248Z,2.10
2022-09-25T02:30:15.586Z,1.70
2022-09-25T02:32:43.558Z,1.43
2022-09-25T02:35:11.513Z,1.40
2022-09-25T02:37:39.455Z,1.60
2022-09-25T02:40:08.551Z,1.27
2022-09-25T02:42:40.039Z,1.50
2022-09-25T02:45:11.990Z,1.67
2022-09-25T02:47:46.265Z,1.20
2022-09-25T02:50:17.431Z,1.43
2022-09-25T02:52:47.586Z,2.20
2022-09-25T02:55:18.630Z,1.47
2022-09-25T02:57:47.343Z,1.40
2022-09-25T03:00:15.304Z,1.27
2022-09-25T03:02:49.589Z,1.50
2022-09-25T03:05:20.581Z,1.90
2022-09-25T03:08:06.279Z,1.80
2022-09-25T03:10:34.458Z,1.40
2022-09-25T03:13:14.747Z,1.63
2022-09-25T03:15:43.118Z,1.10
2022-09-25T03:18:12.818Z,2.20
2022-09-25T03:20:40.928Z,1.80
2022-09-25T03:23:08.862Z,1.73
2022-09-25T03:25:36.858Z,2.27
2022-09-25T03:28:05.032Z,1.80
2022-09-25T03:30:33.043Z,1.20
2022-09-25T03:33:01.026Z,1.30
2022-09-25T03:35:30.337Z,1.37
2022-09-25T03:37:58.252Z,1.40
2022-09-25T03:40:26.215Z,2.03
2022-09-25T03:42:54.262Z,1.60
2022-09-25T03:45:22.206Z,1.43
2022-09-25T03:47:50.130Z,1.23
2022-09-25T03:50:18.286Z,1.60
2022-09-25T03:52:47.594Z,2.00
2022-09-25T03:55:15.676Z,1.47
2022-09-25T03:57:43.600Z,1.87
2022-09-25T04:00:13.051Z,1.70
2022-09-25T04:02:41.353Z,1.60
2022-09-25T04:05:10.977Z,1.83
2022-09-25T04:07:38.922Z,2.47
2022-09-25T04:10:09.656Z,1.20
2022-09-25T04:12:37.630Z,2.27
2022-09-25T04:15:06.833Z,1.73
2022-09-25T04:17:35.714Z,2.43
2022-09-25T04:20:03.887Z,1.60
2022-09-25T04:22:31.866Z,1.67
2022-09-25T04:24:59.991Z,1.47
2022-09-25T04:27:29.313Z,1.73
2022-09-25T04:29:57.300Z,1.60
2022-09-25T04:32:42.882Z,2.53
2022-09-25T04:35:10.824Z,1.33
2022-09-25T04:37:38.788Z,2.70
2022-09-25T04:40:08.214Z,1.40
2022-09-25T04:42:37.564Z,3.10
2022-09-25T04:45:06.138Z,2.80
2022-09-25T04:47:34.078Z,2.23
2022-09-25T04:50:02.019Z,1.73
2022-09-25T04:52:31.851Z,2.63
2022-09-25T04:55:00.832Z,2.17
2022-09-25T04:57:56.617Z,2.17
2022-09-25T05:00:19.395Z,2.30
2022-09-25T05:02:47.478Z,1.77
2022-09-25T05:05:15.931Z,2.40
2022-09-25T05:07:52.505Z,2.50
2022-09-25T05:10:21.021Z,2.20
2022-09-25T05:12:48.982Z,2.07
2022-09-25T05:15:18.349Z,2.10
2022-09-25T05:17:46.300Z,2.00
2022-09-25T05:20:14.261Z,2.57
2022-09-25T05:22:42.229Z,2.27
2022-09-25T05:25:10.972Z,2.63
2022-09-25T05:27:38.937Z,2.23
2022-09-25T05:30:09.611Z,2.77
2022-09-25T05:32:38.971Z,2.33
2022-09-25T05:35:08.289Z,3.27
2022-09-25T05:37:36.238Z,2.80
2022-09-25T05:40:04.243Z,2.43
2022-09-25T05:42:32.198Z,2.60
2022-09-25T05:45:04.949Z,2.90
2022-09-25T05:47:35.294Z,3.37
2022-09-25T05:50:05.264Z,3.00
2022-09-25T05:52:33.227Z,2.03
2022-09-25T05:55:03.172Z,3.43
2022-09-25T05:57:32.216Z,2.33
2022-09-25T06:00:00.270Z,2.40
2022-09-25T06:02:28.303Z,2.43
2022-09-25T06:04:56.305Z,3.90
2022-09-25T06:07:25.686Z,1.80
2022-09-25T06:09:53.660Z,1.40
2022-09-25T06:12:23.172Z,1.27
2022-09-25T06:14:51.770Z,1.80
2022-09-25T06:17:19.963Z,1.60
2022-09-25T06:19:47.947Z,2.20
2022-09-25T06:22:15.970Z,1.80
2022-09-25T06:24:45.876Z,1.60
2022-09-25T06:27:13.836Z,2.00
2022-09-25T06:29:41.831Z,2.40
2022-09-25T06:32:09.788Z,2.00
2022-09-25T06:34:37.948Z,2.47
2022-09-25T06:37:05.877Z,2.20
2022-09-25T06:39:34.038Z,3.00
2022-09-25T06:42:03.758Z,2.30
2022-09-25T06:44:31.945Z,3.00
2022-09-25T06:46:59.926Z,2.70
2022-09-25T06:49:27.923Z,2.10
2022-09-25T06:51:55.881Z,2.10
2022-09-25T06:54:23.846Z,2.23
2022-09-25T06:56:51.859Z,1.90
2022-09-25T06:59:21.739Z,2.10
2022-09-25T07:01:49.800Z,1.90
2022-09-25T07:04:16.860Z,1.70
2022-09-25T07:06:45.174Z,2.10
2022-09-25T07:09:13.134Z,2.50
2022-09-25T07:11:44.165Z,2.37
2022-09-25T07:14:12.326Z,1.83
2022-09-25T07:16:41.755Z,2.10
2022-09-25T07:19:10.375Z,1.77
2022-09-25T07:21:39.222Z,2.00
2022-09-25T07:24:07.255Z,2.00
2022-09-25T07:26:38.745Z,1.23
2022-09-25T07:29:08.968Z,1.57
2022-09-25T07:31:38.027Z,1.57
2022-09-25T07:34:10.247Z,1.43
2022-09-25T07:36:38.627Z,1.40
2022-09-25T07:39:06.731Z,1.40
2022-09-25T07:41:34.721Z,1.63
2022-09-25T07:44:28.525Z,1.30
2022-09-25T07:46:51.033Z,1.30
2022-09-25T07:49:20.424Z,1.70
2022-09-25T07:51:48.364Z,1.87
2022-09-25T07:54:16.399Z,1.60
2022-09-25T07:56:44.328Z,1.83
2022-09-25T07:59:12.292Z,1.37
2022-09-25T08:01:44.123Z,1.40
2022-09-25T08:04:13.494Z,1.63
2022-09-25T08:06:42.827Z,1.27
2022-09-25T08:09:11.839Z,1.70
2022-09-25T08:11:39.802Z,1.87
2022-09-25T08:14:07.775Z,1.70
2022-09-25T08:16:35.789Z,1.60
2022-09-25T08:19:03.888Z,1.30
2022-09-25T08:21:31.836Z,1.70
2022-09-25T08:24:01.221Z,1.83
2022-09-25T08:26:29.412Z,1.70
2022-09-25T08:28:57.357Z,1.50
2022-09-25T08:31:25.355Z,1.87
2022-09-25T08:33:54.427Z,1.47
2022-09-25T08:36:22.478Z,1.90
2022-09-25T08:38:50.424Z,1.63
2022-09-25T08:41:23.197Z,1.43
2022-09-25T08:43:56.557Z,1.40
2022-09-25T08:46:43.388Z,1.13
2022-09-25T08:49:11.483Z,1.43
2022-09-25T08:51:40.666Z,1.40
2022-09-25T08:54:10.575Z,1.30
2022-09-25T08:56:40.345Z,1.50
2022-09-25T08:59:12.132Z,1.77
2022-09-25T09:01:47.503Z,1.80
2022-09-25T09:04:19.232Z,1.30
2022-09-25T09:06:53.241Z,1.40
2022-09-25T09:09:32.348Z,1.03
2022-09-25T09:12:03.889Z,1.43
2022-09-25T09:14:32.577Z,1.43
2022-09-25T09:17:01.412Z,1.33
2022-09-25T09:19:29.336Z,1.67
2022-09-25T09:22:03.182Z,1.20
2022-09-25T09:24:40.052Z,1.30
2022-09-25T09:27:18.060Z,1.70
2022-09-25T09:29:51.821Z,2.63
2022-09-25T09:32:37.384Z,1.27
2022-09-25T09:35:11.496Z,1.20
2022-09-25T09:37:50.051Z,1.63
2022-09-25T09:40:34.116Z,1.17
2022-09-25T09:43:08.399Z,1.30
2022-09-25T09:45:42.158Z,1.50
2022-09-25T09:48:13.947Z,1.53
2022-09-25T09:50:47.201Z,1.40
2022-09-25T09:53:25.879Z,1.57
2022-09-25T09:55:55.278Z,1.67
2022-09-25T09:58:26.399Z,1.13
2022-09-25T10:00:54.349Z,1.27
2022-09-25T10:03:24.040Z,1.47
2022-09-25T10:05:54.091Z,1.10
2022-09-25T10:08:22.035Z,1.00
2022-09-25T10:10:53.910Z,1.60
2022-09-25T10:13:24.476Z,1.20
2022-09-25T10:15:54.765Z,3.00
2022-09-25T10:18:23.889Z,1.57
2022-09-25T10:20:54.075Z,2.70
2022-09-25T10:23:43.070Z,1.30
2022-09-25T10:26:24.732Z,1.20
2022-09-25T10:28:57.472Z,1.40
2022-09-25T10:31:26.432Z,1.27
2022-09-25T10:34:05.501Z,1.13
2022-09-25T10:36:40.420Z,1.43
2022-09-25T10:39:43.537Z,1.60
2022-09-25T10:42:35.919Z,1.50
2022-09-25T10:45:27.925Z,1.27
2022-09-25T10:48:27.685Z,1.53
2022-09-25T10:51:07.340Z,1.30
2022-09-25T10:53:35.266Z,1.93
2022-09-25T10:56:05.184Z,1.47
2022-09-25T10:58:37.028Z,1.00
2022-09-25T11:01:06.559Z,1.10
2022-09-25T11:03:35.718Z,1.10
2022-09-25T11:06:06.189Z,1.57
2022-09-25T11:08:35.446Z,1.30
2022-09-25T11:11:03.671Z,1.60
2022-09-25T11:13:37.030Z,1.40
2022-09-25T11:16:09.375Z,1.07
2022-09-25T11:18:39.943Z,0.97
2022-09-25T11:21:17.133Z,1.23
2022-09-25T11:23:50.929Z,1.27
2022-09-25T11:26:20.777Z,1.20
2022-09-25T11:28:54.216Z,1.55
2022-09-25T11:31:25.116Z,1.17
2022-09-25T11:33:56.571Z,1.15
2022-09-25T11:36:26.242Z,1.30
2022-09-25T11:39:13.149Z,1.30
2022-09-25T11:41:45.380Z,1.10
2022-09-25T11:44:24.728Z,1.17
2022-09-25T11:46:59.964Z,1.03
2022-09-25T11:49:30.393Z,1.58
2022-09-25T11:52:14.063Z,1.00
2022-09-25T11:54:47.665Z,1.00
2022-09-25T11:57:18.325Z,1.30
2022-09-25T11:59:57.159Z,1.37
2022-09-25T12:02:31.802Z,1.17
2022-09-25T12:05:18.963Z,0.93
2022-09-25T12:08:01.057Z,1.10
2022-09-25T12:10:36.530Z,1.43
2022-09-25T12:13:06.920Z,1.00
2022-09-25T12:15:44.564Z,1.20
2022-09-25T12:18:16.781Z,1.13
2022-09-25T12:20:49.235Z,1.00
2022-09-25T12:23:28.038Z,1.35
2022-09-25T12:26:07.911Z,1.40
2022-09-25T12:28:42.309Z,1.30
2022-09-25T12:31:14.484Z,1.07
2022-09-25T12:33:53.945Z,1.17
2022-09-25T12:36:24.380Z,1.10
2022-09-25T12:38:55.299Z,1.30
2022-09-25T12:41:28.789Z,0.90
2022-09-25T12:44:00.374Z,1.80
2022-09-25T12:46:30.203Z,1.87
2022-09-25T12:49:01.567Z,1.30
2022-09-25T12:51:34.184Z,1.77
2022-09-25T12:54:04.073Z,1.90
2022-09-25T12:56:34.769Z,1.30
2022-09-25T12:59:06.346Z,1.47
2022-09-25T13:01:45.549Z,1.30
2022-09-25T13:04:47.517Z,1.33
2022-09-25T13:07:18.339Z,1.43
2022-09-25T13:09:46.889Z,2.03
2022-09-25T13:12:27.981Z,1.27
2022-09-25T13:14:57.374Z,1.07
2022-09-25T13:17:25.292Z,1.20
2022-09-25T13:19:54.620Z,1.47
2022-09-25T13:22:24.953Z,1.73
2022-09-25T13:24:56.446Z,1.40
2022-09-25T13:27:25.615Z,1.67
2022-09-25T13:29:56.063Z,1.10
2022-09-25T13:32:24.957Z,1.50
2022-09-25T13:34:56.491Z,1.30
2022-09-25T13:37:26.663Z,0.97
2022-09-25T13:40:12.044Z,1.40
2022-09-25T13:42:40.840Z,1.17
2022-09-25T13:45:36.317Z,0.90
2022-09-25T13:48:13.429Z,1.17
2022-09-25T13:50:43.890Z,1.43
2022-09-25T13:53:20.645Z,1.30
2022-09-25T13:56:27.204Z,1.30
2022-09-25T13:59:02.974Z,1.20
2022-09-25T14:01:36.056Z,1.30
2022-09-25T14:04:10.264Z,1.07
2022-09-25T14:06:41.651Z,1.10
2022-09-25T14:09:11.615Z,1.80
2022-09-25T14:11:39.772Z,1.20
2022-09-25T14:14:09.698Z,1.20
2022-09-25T14:16:40.461Z,1.80
2022-09-25T14:19:08.830Z,1.17
2022-09-25T14:21:37.502Z,1.40
2022-09-25T14:24:20.143Z,2.00
2022-09-25T14:26:48.424Z,1.90
2022-09-25T14:29:17.613Z,3.87
2022-09-25T14:31:50.512Z,1.43
2022-09-25T14:34:29.959Z,1.47
2022-09-25T14:37:04.885Z,1.10
2022-09-25T14:39:39.375Z,1.53
2022-09-25T14:42:33.534Z,1.73
2022-09-25T14:45:32.166Z,1.80
2022-09-25T14:48:00.796Z,1.70
2022-09-25T14:50:30.122Z,1.50
2022-09-25T14:52:59.215Z,1.60
2022-09-25T14:55:30.379Z,2.07
2022-09-25T14:57:58.808Z,1.57
2022-09-25T15:00:27.381Z,1.50
2022-09-25T15:02:56.276Z,1.63
2022-09-25T15:05:31.465Z,1.67
2022-09-25T15:08:02.143Z,1.67
2022-09-25T15:10:33.232Z,1.33
2022-09-25T15:13:09.422Z,1.37
2022-09-25T15:15:37.830Z,1.70
2022-09-25T15:18:04.901Z,1.47
2022-09-25T15:20:33.677Z,1.17
2022-09-25T15:23:02.714Z,1.60
2022-09-25T15:25:34.265Z,1.53
2022-09-25T15:28:02.289Z,1.77
2022-09-25T15:30:30.408Z,1.57
2022-09-25T15:33:00.856Z,1.30
2022-09-25T15:35:29.490Z,1.63
2022-09-25T15:38:05.559Z,2.00
2022-09-25T15:40:34.999Z,3.60
2022-09-25T15:43:03.055Z,2.37
2022-09-25T15:45:42.883Z,2.20
2022-09-25T15:48:25.230Z,1.67
2022-09-25T15:50:53.604Z,1.60
2022-09-25T15:53:27.335Z,1.17
2022-09-25T15:56:08.152Z,1.97
2022-09-25T15:58:43.961Z,1.90
2022-09-25T16:01:29.931Z,1.73
2022-09-25T16:04:15.062Z,1.60
2022-09-25T16:06:44.618Z,1.30
2022-09-25T16:09:31.863Z,1.57
2022-09-25T16:12:21.058Z,1.80
2022-09-25T16:14:49.312Z,1.60
2022-09-25T16:17:22.245Z,1.97
2022-09-25T16:19:59.720Z,1.53
2022-09-25T16:22:27.809Z,2.10
2022-09-25T16:24:55.921Z,1.77
2022-09-25T16:27:28.471Z,1.40
2022-09-25T16:30:01.280Z,1.80
2022-09-25T16:32:31.905Z,1.53
2022-09-25T16:35:00.542Z,2.57
2022-09-25T16:37:31.644Z,1.93
2022-09-25T16:40:25.317Z,1.60
2022-09-25T16:42:55.789Z,1.20
2022-09-25T16:45:27.781Z,1.93
2022-09-25T16:47:58.358Z,1.50
2022-09-25T16:50:26.807Z,1.90
2022-09-25T16:52:54.769Z,1.40
2022-09-25T16:55:26.248Z,1.80
2022-09-25T16:57:55.700Z,2.20
2022-09-25T17:00:24.774Z,1.70
2022-09-25T17:02:52.857Z,1.27
2022-09-25T17:05:23.350Z,1.27
2022-09-25T17:07:52.234Z,1.73
2022-09-25T17:10:21.123Z,1.53
2022-09-25T17:12:53.465Z,1.60
2022-09-25T17:15:24.831Z,1.30
2022-09-25T17:17:55.142Z,1.80
2022-09-25T17:20:24.130Z,1.37
2022-09-25T17:22:52.239Z,1.70
2022-09-25T17:25:26.650Z,1.50
2022-09-25T17:27:54.621Z,1.37
2022-09-25T17:30:23.952Z,1.27
2022-09-25T17:32:52.563Z,1.43
2022-09-25T17:35:33.465Z,1.67
2022-09-25T17:38:01.686Z,1.33
2022-09-25T17:40:30.525Z,1.73
2022-09-25T17:42:58.494Z,1.67
2022-09-25T17:45:32.085Z,2.00
2022-09-25T17:48:00.031Z,1.70
2022-09-25T17:50:28.161Z,1.50
2022-09-25T17:52:56.131Z,1.43
2022-09-25T17:55:24.127Z,1.57
2022-09-25T17:57:52.080Z,1.60
2022-09-25T18:00:20.553Z,1.73
2022-09-25T18:02:49.935Z,2.27
2022-09-25T18:05:18.903Z,1.50
2022-09-25T18:07:46.833Z,1.63
2022-09-25T18:10:15.074Z,1.80
2022-09-25T18:12:43.036Z,1.63
2022-09-25T18:15:12.602Z,2.10
2022-09-25T18:17:40.702Z,1.93
2022-09-25T18:20:29.838Z,2.00
2022-09-25T18:22:57.815Z,2.37
2022-09-25T18:25:25.824Z,2.20
2022-09-25T18:27:53.807Z,1.80
2022-09-25T18:30:23.161Z,2.20
2022-09-25T18:32:51.153Z,2.90
2022-09-25T18:35:20.492Z,1.97
2022-09-25T18:37:48.665Z,2.00
2022-09-25T18:40:18.066Z,2.30
2022-09-25T18:42:46.307Z,1.97
2022-09-25T18:45:14.442Z,2.33
2022-09-25T18:47:42.444Z,1.50
2022-09-25T18:50:10.684Z,1.93
2022-09-25T18:52:40.102Z,1.73
2022-09-25T18:55:08.423Z,1.50
2022-09-25T18:57:40.476Z,1.60
2022-09-25T19:00:09.641Z,1.93
2022-09-25T19:02:39.127Z,2.13
2022-09-25T19:05:08.425Z,1.50
2022-09-25T19:07:37.217Z,1.63
2022-09-25T19:10:10.832Z,1.87
2022-09-25T19:12:38.754Z,1.80
2022-09-25T19:15:07.361Z,2.27
2022-09-25T19:17:36.449Z,1.40
2022-09-25T19:20:04.634Z,1.60
2022-09-25T19:22:32.937Z,1.63
2022-09-25T19:25:00.929Z,2.10
2022-09-25T19:27:31.018Z,1.90
2022-09-25T19:29:58.978Z,2.07
2022-09-25T19:32:26.962Z,1.87
2022-09-25T19:34:55.455Z,2.20
2022-09-25T19:37:27.670Z,1.50
2022-09-25T19:40:24.724Z,2.40
2022-09-25T19:42:54.124Z,1.97
2022-09-25T19:45:22.239Z,1.97
2022-09-25T19:47:50.172Z,2.50
2022-09-25T19:50:18.936Z,2.93
2022-09-25T19:52:50.897Z,2.30
2022-09-25T19:55:19.833Z,2.03
2022-09-25T19:57:47.921Z,2.00
2022-09-25T20:00:18.253Z,2.53
2022-09-25T20:02:47.254Z,2.37
2022-09-25T20:05:17.175Z,2.60
2022-09-25T20:07:45.084Z,2.07
2022-09-25T20:10:13.803Z,2.60
2022-09-25T20:12:41.769Z,2.53
2022-09-25T20:15:10.284Z,2.40
2022-09-25T20:17:39.633Z,2.23
2022-09-25T20:20:08.245Z,2.63
2022-09-25T20:22:36.728Z,2.97
2022-09-25T20:25:04.817Z,2.70
2022-09-25T20:27:32.792Z,3.50
2022-09-25T20:30:00.753Z,3.10
2022-09-25T20:32:28.653Z,3.23
2022-09-25T20:34:58.580Z,3.30
2022-09-25T20:37:26.641Z,2.80
2022-09-25T20:39:54.852Z,2.80
2022-09-25T20:42:22.825Z,2.87
2022-09-25T20:44:51.527Z,2.17
2022-09-25T20:47:19.474Z,2.50
2022-09-25T20:49:47.478Z,2.67
2022-09-25T20:52:16.792Z,2.97
2022-09-25T20:54:44.703Z,2.60
2022-09-25T20:57:12.704Z,2.63
2022-09-25T20:59:40.651Z,3.13
2022-09-25T21:02:10.142Z,3.03
2022-09-25T21:04:38.270Z,3.00
2022-09-25T21:07:06.209Z,3.17
2022-09-25T21:09:35.504Z,3.37
2022-09-25T21:12:05.839Z,2.63
2022-09-25T21:14:34.933Z,3.03
2022-09-25T21:17:03.170Z,2.20
2022-09-25T21:19:31.867Z,2.03
2022-09-25T21:21:59.831Z,2.23
2022-09-25T21:24:27.755Z,1.93
2022-09-25T21:26:57.163Z,1.80
2022-09-25T21:29:25.130Z,1.67
2022-09-25T21:31:54.792Z,1.60
2022-09-25T21:34:22.748Z,1.30
2022-09-25T21:36:50.694Z,2.00
2022-09-25T21:39:21.026Z,1.67
2022-09-25T21:41:49.502Z,1.70
2022-09-25T21:44:20.276Z,1.53
2022-09-25T21:46:48.224Z,2.57
2022-09-25T21:49:17.247Z,2.23
2022-09-25T21:51:45.904Z,1.90
2022-09-25T21:54:14.169Z,2.77
2022-09-25T21:56:43.280Z,2.70
2022-09-25T21:59:11.370Z,2.20
2022-09-25T22:01:40.924Z,3.20
2022-09-25T22:04:09.763Z,2.73
2022-09-25T22:06:38.786Z,3.13
2022-09-25T22:09:08.198Z,2.80
2022-09-25T22:11:37.252Z,2.50
2022-09-25T22:14:05.923Z,3.23
2022-09-25T22:16:35.141Z,2.57
2022-09-25T22:19:07.648Z,2.50
2022-09-25T22:21:35.709Z,3.10
2022-09-25T22:24:03.687Z,2.93
2022-09-25T22:26:31.645Z,2.23
2022-09-25T22:28:59.568Z,3.80
2022-09-25T22:31:28.577Z,2.60
2022-09-25T22:33:57.691Z,2.27
2022-09-25T22:36:27.396Z,2.33
2022-09-25T22:38:55.626Z,2.60
2022-09-25T22:41:23.664Z,2.90
2022-09-25T22:43:52.163Z,3.03
2022-09-25T22:46:20.366Z,3.50
2022-09-25T22:48:48.382Z,3.07
2022-09-25T22:51:17.268Z,3.87
2022-09-25T22:53:46.685Z,3.00
2022-09-25T22:56:15.612Z,2.93
2022-09-25T22:58:43.553Z,5.10
2022-09-25T23:01:13.146Z,3.50
2022-09-25T23:03:41.134Z,3.77
2022-09-25T23:06:09.440Z,3.40
2022-09-25T23:08:37.400Z,2.80
2022-09-25T23:11:08.092Z,3.87
2022-09-25T23:13:36.542Z,3.43
2022-09-25T23:16:07.933Z,3.43
2022-09-25T23:18:36.109Z,3.00
2022-09-25T23:21:04.040Z,2.67
2022-09-25T23:23:32.161Z,3.80
2022-09-25T23:26:03.444Z,2.90
2022-09-25T23:28:35.052Z,1.93
2022-09-25T23:31:07.851Z,2.10
2022-09-25T23:33:36.107Z,1.67
2022-09-25T23:36:05.562Z,1.77
2022-09-25T23:38:33.767Z,2.20
2022-09-25T23:41:01.831Z,3.30
2022-09-25T23:43:30.377Z,2.20
2022-09-25T23:45:59.703Z,1.83
2022-09-25T23:48:27.755Z,2.13
2022-09-25T23:50:55.677Z,2.30
2022-09-25T23:53:23.677Z,2.40
2022-09-25T23:55:51.614Z,2.30
2022-09-25T23:58:19.526Z,2.33
